createdAt,value
2018-11-29T00:00:30.097Z,-0.76
2018-11-29T00:02:59.098Z,-0.76
2018-11-29T00:05:28.048Z,-0.79
2018-11-29T00:07:57.097Z,-0.80
2018-11-29T00:10:26.198Z,-0.79
2018-11-29T00:12:55.226Z,-0.80
2018-11-29T00:15:24.422Z,-0.86
2018-11-29T00:17:53.400Z,-0.88
2018-11-29T00:20:22.354Z,-0.85
2018-11-29T00:22:52.061Z,-0.78
2018-11-29T00:25:21.419Z,-0.81
2018-11-29T00:27:50.584Z,-0.86
2018-11-29T00:30:23.587Z,-0.92
2018-11-29T00:32:55.457Z,-0.87
2018-11-29T00:35:24.693Z,-0.93
2018-11-29T00:37:53.538Z,-0.85
2018-11-29T00:40:23.318Z,-0.80
2018-11-29T00:42:52.641Z,-0.83
2018-11-29T00:45:23.672Z,-0.84
2018-11-29T00:47:52.910Z,-0.82
2018-11-29T00:50:22.278Z,-0.81
2018-11-29T00:52:51.813Z,-0.86
2018-11-29T00:55:22.484Z,-0.82
2018-11-29T00:57:52.598Z,-0.87
2018-11-29T01:00:25.384Z,-0.89
2018-11-29T01:02:54.503Z,-0.88
2018-11-29T01:05:23.549Z,-0.87
2018-11-29T01:07:52.534Z,-0.88
2018-11-29T01:10:21.603Z,-0.93
2018-11-29T01:12:50.926Z,-0.93
2018-11-29T01:15:20.814Z,-0.93
2018-11-29T01:17:50.587Z,-1.00
2018-11-29T01:20:20.456Z,-1.04
2018-11-29T01:22:49.530Z,-1.02
2018-11-29T01:25:18.758Z,-1.11
2018-11-29T01:27:48.807Z,-1.07
2018-11-29T01:30:19.660Z,-1.06
2018-11-29T01:32:48.649Z,-1.06
2018-11-29T01:35:18.533Z,-1.08
2018-11-29T01:37:47.646Z,-1.03
2018-11-29T01:40:18.241Z,-1.16
2018-11-29T01:42:51.434Z,-1.22
2018-11-29T01:45:20.377Z,-1.27
2018-11-29T01:47:49.316Z,-1.26
2018-11-29T01:50:18.349Z,-1.30
2018-11-29T01:52:47.285Z,-1.28
2018-11-29T01:55:16.180Z,-1.23
2018-11-29T01:57:45.117Z,-1.25
2018-11-29T02:00:15.874Z,-1.28
2018-11-29T02:02:48.726Z,-1.26
2018-11-29T02:05:17.632Z,-1.27
2018-11-29T02:07:46.586Z,-1.25
2018-11-29T02:10:21.588Z,-1.29
2018-11-29T02:12:50.597Z,-1.31
2018-11-29T02:15:19.613Z,-1.35
2018-11-29T02:17:48.644Z,-1.35
2018-11-29T02:20:18.547Z,-1.32
2018-11-29T02:22:47.995Z,-1.31
2018-11-29T02:25:16.950Z,-1.32
2018-11-29T02:27:45.954Z,-1.31
2018-11-29T02:30:18.960Z,-1.32
2018-11-29T02:32:48.199Z,-1.35
2018-11-29T02:35:17.291Z,-1.37
2018-11-29T02:37:46.324Z,-1.37
2018-11-29T02:40:16.304Z,-1.44
2018-11-29T02:42:45.481Z,-1.41
2018-11-29T02:45:16.649Z,-1.42
2018-11-29T02:47:45.549Z,-1.39
2018-11-29T02:50:14.499Z,-1.36
2018-11-29T02:52:43.456Z,-1.36
2018-11-29T02:55:13.184Z,-1.34
2018-11-29T02:57:42.491Z,-1.33
2018-11-29T03:00:14.072Z,-1.37
2018-11-29T03:02:43.278Z,-1.36
2018-11-29T03:05:12.282Z,-1.36
2018-11-29T03:07:41.259Z,-1.37
2018-11-29T03:10:12.083Z,-1.36
2018-11-29T03:12:41.169Z,-1.38
2018-11-29T03:15:15.127Z,-1.38
2018-11-29T03:17:44.678Z,-1.38
2018-11-29T03:20:14.522Z,-1.41
2018-11-29T03:22:43.609Z,-1.35
2018-11-29T03:25:14.480Z,-1.43
2018-11-29T03:27:43.563Z,-1.36
2018-11-29T03:30:21.510Z,-1.36
2018-11-29T03:32:50.466Z,-1.29
2018-11-29T03:35:19.541Z,-1.32
2018-11-29T03:37:48.554Z,-1.32
2018-11-29T03:40:17.808Z,-1.32
2018-11-29T03:42:46.985Z,-1.28
2018-11-29T03:45:16.770Z,-1.30
2018-11-29T03:47:46.182Z,-1.29
2018-11-29T03:50:18.128Z,-1.30
2018-11-29T03:52:47.426Z,-1.25
2018-11-29T03:55:23.202Z,-1.26
2018-11-29T03:57:52.195Z,-1.24
2018-11-29T04:00:21.136Z,-1.23
2018-11-29T04:02:50.084Z,-1.23
2018-11-29T04:05:19.013Z,-1.20
2018-11-29T04:07:47.976Z,-1.25
2018-11-29T04:10:17.466Z,-1.27
2018-11-29T04:12:46.511Z,-1.19
2018-11-29T04:15:16.176Z,-1.18
2018-11-29T04:17:45.522Z,-1.15
2018-11-29T04:20:15.505Z,-1.21
2018-11-29T04:22:44.470Z,-1.20
2018-11-29T04:25:14.446Z,-1.29
2018-11-29T04:27:43.460Z,-1.25
2018-11-29T04:30:14.413Z,-1.23
2018-11-29T04:32:43.451Z,-1.30
2018-11-29T04:35:12.806Z,-1.22
2018-11-29T04:37:41.935Z,-1.22
2018-11-29T04:40:15.912Z,-1.20
2018-11-29T04:42:45.053Z,-1.21
2018-11-29T04:45:15.668Z,-1.21
2018-11-29T04:47:44.761Z,-1.20
2018-11-29T04:50:13.818Z,-1.22
2018-11-29T04:52:42.746Z,-1.23
2018-11-29T04:55:11.730Z,-1.42
2018-11-29T04:57:40.805Z,-1.21
2018-11-29T05:00:13.541Z,-1.22
2018-11-29T05:02:42.545Z,-1.23
2018-11-29T05:05:13.632Z,-1.25
2018-11-29T05:07:42.614Z,-1.23
2018-11-29T05:10:12.844Z,-1.20
2018-11-29T05:12:41.763Z,-1.21
2018-11-29T05:15:11.794Z,-1.21
2018-11-29T05:17:40.735Z,-1.23
2018-11-29T05:20:10.064Z,-1.20
2018-11-29T05:22:38.974Z,-1.19
2018-11-29T05:25:08.983Z,-1.20
2018-11-29T05:27:38.255Z,-1.19
2018-11-29T05:30:11.509Z,-1.16
2018-11-29T05:32:40.470Z,-1.17
2018-11-29T05:35:10.831Z,-1.19
2018-11-29T05:37:39.778Z,-1.18
2018-11-29T05:40:10.786Z,-1.23
2018-11-29T05:42:39.712Z,-1.23
2018-11-29T05:45:09.705Z,-1.21
2018-11-29T05:47:38.642Z,-1.21
2018-11-29T05:50:10.475Z,-1.19
2018-11-29T05:52:39.561Z,-1.23
2018-11-29T05:55:10.156Z,-1.23
2018-11-29T05:57:39.222Z,-1.29
2018-11-29T06:00:11.510Z,-1.33
2018-11-29T06:02:40.650Z,-1.32
2018-11-29T06:05:10.641Z,-1.33
2018-11-29T06:07:41.121Z,-1.31
2018-11-29T06:10:10.121Z,-1.32
2018-11-29T06:12:39.172Z,-1.33
2018-11-29T06:15:10.096Z,-1.29
2018-11-29T06:17:39.044Z,-1.25
2018-11-29T06:20:11.164Z,-1.26
2018-11-29T06:22:40.158Z,-1.28
2018-11-29T06:25:09.306Z,-1.24
2018-11-29T06:27:38.286Z,-1.21
2018-11-29T06:30:11.934Z,-1.19
2018-11-29T06:32:40.947Z,-1.19
2018-11-29T06:35:09.990Z,-1.13
2018-11-29T06:37:39.003Z,-1.09
2018-11-29T06:40:11.055Z,-1.20
2018-11-29T06:42:40.110Z,-1.13
2018-11-29T06:45:17.988Z,-1.07
2018-11-29T06:47:48.648Z,-1.05
2018-11-29T06:50:17.598Z,-1.12
2018-11-29T06:52:51.309Z,-1.02
2018-11-29T06:55:22.276Z,-1.02
2018-11-29T06:57:53.492Z,-1.01
2018-11-29T07:00:31.778Z,-1.01
2018-11-29T07:03:03.472Z,-0.99
2018-11-29T07:05:34.276Z,-1.03
2018-11-29T07:08:05.180Z,-0.95
2018-11-29T07:10:37.259Z,-1.00
2018-11-29T07:13:09.552Z,-1.09
2018-11-29T07:15:40.227Z,-1.08
2018-11-29T07:18:09.648Z,-1.11
2018-11-29T07:20:40.661Z,-1.13
2018-11-29T07:23:11.164Z,-1.08
2018-11-29T07:25:42.845Z,-1.11
2018-11-29T07:28:14.219Z,-1.14
2018-11-29T07:30:44.534Z,-1.09
2018-11-29T07:33:17.305Z,-1.09
2018-11-29T07:35:48.113Z,-1.12
2018-11-29T07:38:19.012Z,-1.14
2018-11-29T07:40:48.485Z,-2.01
2018-11-29T07:43:18.879Z,-1.23
2018-11-29T07:45:50.814Z,-1.20
2018-11-29T07:48:20.182Z,-1.22
2018-11-29T07:50:52.626Z,-1.14
2018-11-29T07:53:25.105Z,-1.19
2018-11-29T07:55:55.047Z,-1.24
2018-11-29T07:58:25.846Z,-1.30
2018-11-29T08:00:56.899Z,-1.32
2018-11-29T08:03:28.439Z,-1.32
2018-11-29T08:05:58.590Z,-1.32
2018-11-29T08:08:29.424Z,-1.28
2018-11-29T08:11:00.096Z,-1.23
2018-11-29T08:13:30.870Z,-1.18
2018-11-29T08:16:02.635Z,-1.19
2018-11-29T08:18:35.874Z,-1.14
2018-11-29T08:21:06.000Z,-1.24
2018-11-29T08:23:39.114Z,-1.13
2018-11-29T08:26:08.519Z,-1.18
2018-11-29T08:28:41.028Z,-1.14
2018-11-29T08:31:10.552Z,-1.07
2018-11-29T08:33:41.137Z,-1.04
2018-11-29T08:36:14.599Z,-2.20
2018-11-29T08:38:46.062Z,-1.10
2018-11-29T08:41:17.023Z,-1.16
2018-11-29T08:43:48.534Z,-1.14
2018-11-29T08:46:18.002Z,-1.14
2018-11-29T08:48:47.468Z,-1.09
2018-11-29T08:51:17.531Z,-1.12
2018-11-29T08:53:48.683Z,-1.03
2018-11-29T08:56:21.154Z,-1.00
2018-11-29T08:58:51.173Z,-0.93
2018-11-29T09:01:24.227Z,-1.93
2018-11-29T09:03:54.583Z,-0.93
2018-11-29T09:06:26.510Z,-0.93
2018-11-29T09:08:57.401Z,-0.89
2018-11-29T09:11:30.197Z,-0.80
2018-11-29T09:14:02.063Z,-0.74
2018-11-29T09:16:34.867Z,-0.71
2018-11-29T09:19:04.977Z,-0.72
2018-11-29T09:21:37.419Z,-0.77
2018-11-29T09:24:07.955Z,-0.72
2018-11-29T09:26:38.642Z,-0.71
2018-11-29T09:29:09.095Z,-0.70
2018-11-29T09:31:38.014Z,-0.61
2018-11-29T09:34:07.201Z,-0.48
2018-11-29T09:36:36.215Z,-0.54
2018-11-29T09:39:07.255Z,-0.59
2018-11-29T09:41:36.296Z,-0.50
2018-11-29T09:44:05.303Z,-0.34
2018-11-29T09:46:34.298Z,-0.26
2018-11-29T09:49:03.237Z,-0.26
2018-11-29T09:51:32.252Z,-0.34
2018-11-29T09:54:01.239Z,-0.25
2018-11-29T09:56:30.189Z,-0.26
2018-11-29T09:58:59.147Z,-0.22
2018-11-29T10:01:28.063Z,-0.12
2018-11-29T10:04:01.815Z,-0.07
2018-11-29T10:06:30.826Z,0.03
2018-11-29T10:08:59.726Z,-0.01
2018-11-29T10:11:28.611Z,0.00
2018-11-29T10:13:57.639Z,-0.05
2018-11-29T10:16:26.627Z,-0.06
2018-11-29T10:18:55.514Z,0.02
2018-11-29T10:21:24.488Z,-0.08
2018-11-29T10:23:53.400Z,-0.03
2018-11-29T10:26:22.330Z,0.01
2018-11-29T10:28:51.373Z,-0.01
2018-11-29T10:31:20.301Z,0.08
2018-11-29T10:33:49.205Z,0.15
2018-11-29T10:36:18.176Z,0.11
2018-11-29T10:38:47.143Z,0.17
2018-11-29T10:41:15.990Z,0.14
2018-11-29T10:43:44.964Z,0.21
2018-11-29T10:46:15.671Z,0.32
2018-11-29T10:48:43.097Z,0.29
2018-11-29T10:51:12.027Z,0.29
2018-11-29T10:53:41.133Z,0.32
2018-11-29T10:56:11.408Z,0.34
2018-11-29T10:58:40.351Z,0.33
2018-11-29T11:01:14.274Z,0.24
2018-11-29T11:03:43.251Z,0.28
2018-11-29T11:06:12.132Z,0.34
2018-11-29T11:08:41.241Z,0.19
2018-11-29T11:11:10.270Z,0.22
2018-11-29T11:13:39.245Z,0.37
2018-11-29T11:16:08.403Z,0.31
2018-11-29T11:18:38.803Z,0.29
2018-11-29T11:21:07.718Z,0.35
2018-11-29T11:23:36.613Z,0.36
2018-11-29T11:26:05.940Z,0.26
2018-11-29T11:28:34.856Z,0.24
2018-11-29T11:31:03.766Z,0.23
2018-11-29T11:33:32.780Z,0.11
2018-11-29T11:36:01.694Z,0.08
2018-11-29T11:38:30.651Z,0.09
2018-11-29T11:40:59.658Z,0.11
2018-11-29T11:43:28.550Z,-0.02
2018-11-29T11:45:57.497Z,0.08
2018-11-29T11:48:26.442Z,0.00
2018-11-29T11:50:55.428Z,-0.02
2018-11-29T11:53:24.570Z,0.09
2018-11-29T11:55:54.102Z,0.04
2018-11-29T11:58:29.033Z,-0.17
2018-11-29T12:00:58.059Z,-0.23
2018-11-29T12:03:27.004Z,-0.24
2018-11-29T12:05:56.146Z,-0.39
2018-11-29T12:08:25.069Z,-0.46
2018-11-29T12:10:54.038Z,-0.58
2018-11-29T12:13:26.118Z,-0.69
2018-11-29T12:15:55.062Z,-0.80
2018-11-29T12:18:23.990Z,-0.98
2018-11-29T12:20:52.966Z,-0.91
2018-11-29T12:23:21.927Z,-0.86
2018-11-29T12:25:50.835Z,-0.93
2018-11-29T12:28:19.830Z,-0.93
2018-11-29T12:30:50.460Z,-0.90
2018-11-29T12:33:19.375Z,-0.92
2018-11-29T12:35:48.995Z,-0.95
2018-11-29T12:38:17.955Z,-0.96
2018-11-29T12:40:46.849Z,-0.88
2018-11-29T12:43:15.766Z,-0.81
2018-11-29T12:45:44.702Z,-0.86
2018-11-29T12:48:13.562Z,-0.86
2018-11-29T12:50:42.573Z,-0.84
2018-11-29T12:53:11.564Z,-0.95
2018-11-29T12:55:42.841Z,-1.13
2018-11-29T12:58:11.798Z,-1.03
2018-11-29T13:00:40.786Z,-1.01
2018-11-29T13:03:10.195Z,-1.14
2018-11-29T13:05:40.484Z,-1.22
2018-11-29T13:08:10.029Z,-1.27
2018-11-29T13:10:39.197Z,-1.29
2018-11-29T13:13:09.962Z,-1.19
2018-11-29T13:15:38.919Z,-1.21
2018-11-29T13:18:09.299Z,-1.19
2018-11-29T13:20:38.336Z,-1.27
2018-11-29T13:23:07.571Z,-1.34
2018-11-29T13:25:36.715Z,-1.28
2018-11-29T13:28:06.630Z,-1.26
2018-11-29T13:30:36.671Z,-1.42
2018-11-29T13:33:06.719Z,-1.42
2018-11-29T13:35:36.414Z,-1.47
2018-11-29T13:38:10.420Z,-1.51
2018-11-29T13:40:40.854Z,-1.57
2018-11-29T13:43:09.854Z,-1.52
2018-11-29T13:45:38.745Z,-1.57
2018-11-29T13:48:09.699Z,-1.63
2018-11-29T13:50:39.297Z,-1.56
2018-11-29T13:53:08.246Z,-1.58
2018-11-29T13:55:37.732Z,-1.63
2018-11-29T13:58:06.969Z,-1.64
2018-11-29T14:00:35.891Z,-1.73
2018-11-29T14:03:08.734Z,-1.68
2018-11-29T14:05:44.716Z,-1.75
2018-11-29T14:08:13.832Z,-1.75
2018-11-29T14:10:43.593Z,-1.70
2018-11-29T14:13:12.738Z,-1.73
2018-11-29T14:15:41.842Z,-1.79
2018-11-29T14:18:10.846Z,-1.83
2018-11-29T14:20:39.809Z,-1.80
2018-11-29T14:23:09.403Z,-1.91
2018-11-29T14:25:38.675Z,-1.96
2018-11-29T14:28:08.509Z,-2.02
2018-11-29T14:30:38.799Z,-2.06
2018-11-29T14:33:08.670Z,-2.15
2018-11-29T14:35:37.687Z,-2.13
2018-11-29T14:38:06.993Z,-2.11
2018-11-29T14:40:36.921Z,-2.12
2018-11-29T14:43:06.707Z,-2.11
2018-11-29T14:45:42.077Z,-2.11
2018-11-29T14:48:11.246Z,-2.14
2018-11-29T14:50:43.857Z,-2.17
2018-11-29T14:53:14.370Z,-2.14
2018-11-29T14:55:43.380Z,-2.18
2018-11-29T14:58:13.437Z,-2.16
2018-11-29T15:00:42.552Z,-2.17
2018-11-29T15:03:15.862Z,-2.18
2018-11-29T15:05:45.279Z,-2.15
2018-11-29T15:08:14.277Z,-2.20
2018-11-29T15:10:44.485Z,-2.30
2018-11-29T15:13:13.788Z,-2.25
2018-11-29T15:15:43.506Z,-2.30
2018-11-29T15:18:12.799Z,-2.37
2018-11-29T15:20:43.424Z,-2.36
2018-11-29T15:23:13.574Z,-2.41
2018-11-29T15:25:42.518Z,-2.39
2018-11-29T15:28:12.788Z,-2.40
2018-11-29T15:30:42.224Z,-2.41
2018-11-29T15:33:11.439Z,-2.41
2018-11-29T15:35:41.661Z,-2.42
2018-11-29T15:38:10.642Z,-2.41
2018-11-29T15:40:39.633Z,-2.44
2018-11-29T15:43:08.657Z,-2.39
2018-11-29T15:45:37.661Z,-2.37
2018-11-29T15:48:06.582Z,-2.39
2018-11-29T15:50:37.046Z,-2.37
2018-11-29T15:53:06.985Z,-2.40
2018-11-29T15:55:36.437Z,-2.39
2018-11-29T15:58:05.735Z,-2.41
2018-11-29T16:00:34.609Z,-2.28
2018-11-29T16:03:08.822Z,-2.30
2018-11-29T16:05:41.116Z,-2.36
2018-11-29T16:08:07.301Z,-2.39
2018-11-29T16:10:37.555Z,-2.38
2018-11-29T16:13:07.614Z,-2.37
2018-11-29T16:15:37.062Z,-2.40
2018-11-29T16:18:06.282Z,-2.39
2018-11-29T16:20:36.862Z,-2.36
2018-11-29T16:23:06.767Z,-2.37
2018-11-29T16:25:37.214Z,-2.38
2018-11-29T16:28:06.605Z,-2.38
2018-11-29T16:30:45.524Z,-2.39
2018-11-29T16:33:19.442Z,-2.42
2018-11-29T16:35:48.495Z,-2.41
2018-11-29T16:38:17.495Z,-2.50
2018-11-29T16:40:46.402Z,-2.45
2018-11-29T16:43:15.430Z,-2.43
2018-11-29T16:45:44.438Z,-2.38
2018-11-29T16:48:13.382Z,-2.36
2018-11-29T16:50:42.359Z,-2.40
2018-11-29T16:53:11.488Z,-2.36
2018-11-29T16:55:40.586Z,-2.33
2018-11-29T16:58:11.345Z,-2.32
2018-11-29T17:00:40.372Z,-2.29
2018-11-29T17:03:11.166Z,-2.32
2018-11-29T17:05:40.231Z,-2.26
2018-11-29T17:08:09.296Z,-2.27
2018-11-29T17:10:38.412Z,-2.28
2018-11-29T17:13:12.046Z,-2.24
2018-11-29T17:15:42.361Z,-2.30
2018-11-29T17:18:11.448Z,-2.27
2018-11-29T17:20:40.472Z,-2.29
2018-11-29T17:23:12.198Z,-2.31
2018-11-29T17:25:41.171Z,-2.26
2018-11-29T17:28:10.094Z,-2.31
2018-11-29T17:30:40.536Z,-2.28
2018-11-29T17:33:11.003Z,-2.28
2018-11-29T17:35:39.934Z,-2.26
2018-11-29T17:38:10.277Z,-2.25
2018-11-29T17:40:39.811Z,-2.21
2018-11-29T17:43:08.991Z,-2.20
2018-11-29T17:45:38.346Z,-2.13
2018-11-29T17:48:12.665Z,-2.13
2018-11-29T17:50:43.914Z,-2.17
2018-11-29T17:53:12.939Z,-2.17
2018-11-29T17:55:42.099Z,-2.17
2018-11-29T17:58:14.974Z,-2.17
2018-11-29T18:00:45.561Z,-2.17
2018-11-29T18:03:16.186Z,-2.12
2018-11-29T18:05:45.197Z,-2.16
2018-11-29T18:08:14.175Z,-2.17
2018-11-29T18:10:44.825Z,-2.17
2018-11-29T18:13:21.317Z,-2.19
2018-11-29T18:15:50.384Z,-2.18
2018-11-29T18:18:20.570Z,-2.09
2018-11-29T18:20:49.515Z,-2.12
2018-11-29T18:23:18.524Z,-2.04
2018-11-29T18:25:47.627Z,-2.04
2018-11-29T18:28:16.566Z,-1.99
2018-11-29T18:30:45.817Z,-1.99
2018-11-29T18:33:14.857Z,-1.97
2018-11-29T18:35:43.856Z,-1.94
2018-11-29T18:38:12.844Z,-1.93
2018-11-29T18:40:43.126Z,-1.95
2018-11-29T18:43:12.369Z,-1.88
2018-11-29T18:45:41.460Z,-1.93
2018-11-29T18:48:11.276Z,-1.94
2018-11-29T18:50:40.583Z,-1.96
2018-11-29T18:53:09.642Z,-2.04
2018-11-29T18:55:38.760Z,-2.02
2018-11-29T18:58:08.318Z,-2.05
2018-11-29T19:00:37.932Z,-2.02
2018-11-29T19:03:07.925Z,-1.97
2018-11-29T19:05:36.902Z,-2.00
2018-11-29T19:08:08.006Z,-1.95
2018-11-29T19:10:37.034Z,-1.96
2018-11-29T19:13:11.119Z,-1.95
2018-11-29T19:15:40.161Z,-1.95
2018-11-29T19:18:10.715Z,-1.92
2018-11-29T19:20:39.281Z,-1.90
2018-11-29T19:23:09.590Z,-1.90
2018-11-29T19:25:38.538Z,-1.87
2018-11-29T19:28:09.151Z,-1.90
2018-11-29T19:30:38.994Z,-1.91
2018-11-29T19:33:19.704Z,-1.87
2018-11-29T19:35:49.903Z,-1.89
2018-11-29T19:38:18.929Z,-1.87
2018-11-29T19:40:47.910Z,-1.87
2018-11-29T19:43:17.137Z,-1.86
2018-11-29T19:45:46.148Z,-1.94
2018-11-29T19:48:16.922Z,-1.92
2018-11-29T19:50:45.908Z,-1.91
2018-11-29T19:53:25.045Z,-1.95
2018-11-29T19:55:56.790Z,-1.96
2018-11-29T19:58:25.913Z,-1.96
2018-11-29T20:00:54.926Z,-1.99
2018-11-29T20:03:25.570Z,-1.96
2018-11-29T20:05:54.627Z,-1.91
2018-11-29T20:08:23.559Z,-1.91
2018-11-29T20:10:53.839Z,-1.90
2018-11-29T20:13:23.889Z,-1.94
2018-11-29T20:15:56.764Z,-1.93
2018-11-29T20:18:25.774Z,-1.87
2018-11-29T20:20:54.738Z,-1.82
2018-11-29T20:23:24.582Z,-1.83
2018-11-29T20:25:53.704Z,-1.90
2018-11-29T20:28:22.612Z,-1.89
2018-11-29T20:30:51.716Z,-1.86
2018-11-29T20:33:21.117Z,-1.84
2018-11-29T20:35:50.136Z,-1.86
2018-11-29T20:38:19.209Z,-1.84
2018-11-29T20:40:48.163Z,-1.89
2018-11-29T20:43:17.313Z,-1.94
2018-11-29T20:45:50.566Z,-1.92
2018-11-29T20:48:24.897Z,-1.91
2018-11-29T20:50:55.990Z,-1.97
2018-11-29T20:53:36.870Z,-1.94
2018-11-29T20:56:08.748Z,-1.93
2018-11-29T20:58:37.711Z,-1.98
2018-11-29T21:01:07.650Z,-2.03
2018-11-29T21:03:37.160Z,-2.06
2018-11-29T21:06:08.185Z,-2.07
2018-11-29T21:08:37.181Z,-2.02
2018-11-29T21:11:06.225Z,-2.04
2018-11-29T21:13:35.236Z,-2.06
2018-11-29T21:16:04.662Z,-2.07
2018-11-29T21:18:35.098Z,-2.07
2018-11-29T21:21:04.100Z,-2.08
2018-11-29T21:23:33.090Z,-2.12
2018-11-29T21:26:02.564Z,-2.10
2018-11-29T21:28:31.667Z,-2.11
2018-11-29T21:31:00.656Z,-2.12
2018-11-29T21:33:29.627Z,-2.06
2018-11-29T21:35:58.643Z,-2.11
2018-11-29T21:38:27.590Z,-2.14
2018-11-29T21:41:02.364Z,-2.08
2018-11-29T21:43:31.314Z,-2.09
2018-11-29T21:46:00.376Z,-2.05
2018-11-29T21:48:30.616Z,-1.98
2018-11-29T21:50:59.600Z,-1.98
2018-11-29T21:53:28.592Z,-2.03
2018-11-29T21:55:57.669Z,-2.09
2018-11-29T21:58:26.675Z,-2.10
2018-11-29T22:00:55.816Z,-2.12
2018-11-29T22:03:24.718Z,-2.14
2018-11-29T22:05:53.747Z,-2.14
2018-11-29T22:08:22.741Z,-2.14
2018-11-29T22:10:51.717Z,-2.14
2018-11-29T22:13:20.742Z,-2.09
2018-11-29T22:15:49.814Z,-2.03
2018-11-29T22:18:24.653Z,-2.16
2018-11-29T22:20:56.809Z,-2.13
2018-11-29T22:23:25.754Z,-2.11
2018-11-29T22:25:55.819Z,-2.10
2018-11-29T22:28:25.339Z,-2.08
2018-11-29T22:30:54.985Z,-2.13
2018-11-29T22:33:23.991Z,-2.10
2018-11-29T22:35:53.013Z,-2.10
2018-11-29T22:38:22.010Z,-2.09
2018-11-29T22:40:50.989Z,-2.06
2018-11-29T22:43:20.045Z,-2.05
2018-11-29T22:45:49.022Z,-2.05
2018-11-29T22:48:18.054Z,-2.04
2018-11-29T22:50:47.036Z,-1.98
2018-11-29T22:53:16.206Z,-2.00
2018-11-29T22:55:45.162Z,-1.97
2018-11-29T22:58:14.090Z,-1.95
2018-11-29T23:00:48.349Z,-1.96
2018-11-29T23:03:17.491Z,-1.94
2018-11-29T23:05:46.540Z,-1.95
2018-11-29T23:08:15.534Z,-1.91
2018-11-29T23:10:44.567Z,-2.01
2018-11-29T23:13:13.479Z,-1.99
2018-11-29T23:15:42.441Z,-1.97
2018-11-29T23:18:11.377Z,-1.94
2018-11-29T23:20:40.428Z,-1.93
2018-11-29T23:23:09.389Z,-1.94
2018-11-29T23:25:38.335Z,-1.94
2018-11-29T23:28:07.767Z,-2.00
2018-11-29T23:30:36.761Z,-1.96
2018-11-29T23:33:05.844Z,-1.99
2018-11-29T23:35:34.886Z,-1.98
2018-11-29T23:38:03.877Z,-2.01
2018-11-29T23:40:32.979Z,-2.02
2018-11-29T23:43:01.946Z,-2.00
2018-11-29T23:45:30.868Z,-2.04
2018-11-29T23:47:59.857Z,-2.05
2018-11-29T23:50:28.845Z,-2.08
2018-11-29T23:52:57.777Z,-2.11
2018-11-29T23:55:26.800Z,-2.12
2018-11-29T23:57:55.719Z,-2.09
